createdAt,value
2022-11-01T00:06:10.285Z,27.35
2022-11-01T00:16:11.674Z,26.42
2022-11-01T00:26:12.950Z,28.50
2022-11-01T00:36:14.280Z,26.70
2022-11-01T00:46:15.792Z,25.63
2022-11-01T00:56:17.218Z,26.75
2022-11-01T01:06:18.580Z,27.98
2022-11-01T01:16:19.942Z,26.48
2022-11-01T01:26:21.308Z,26.27
2022-11-01T01:36:22.641Z,24.58
2022-11-01T01:46:24.212Z,27.17
2022-11-01T01:56:25.531Z,26.33
2022-11-01T02:06:26.818Z,25.35
2022-11-01T02:16:28.187Z,23.83
2022-11-01T02:26:29.486Z,29.42
2022-11-01T02:36:30.832Z,30.33
2022-11-01T02:46:51.170Z,31.55
2022-11-01T02:56:52.491Z,23.08
2022-11-01T03:06:53.837Z,30.67
2022-11-01T03:16:55.188Z,29.23
2022-11-01T03:26:56.487Z,32.38
2022-11-01T03:36:57.881Z,32.15
2022-11-01T03:46:59.421Z,36.15
2022-11-01T03:57:00.755Z,36.22
2022-11-01T04:07:02.129Z,33.58
2022-11-01T04:17:22.124Z,29.58
2022-11-01T04:27:23.471Z,29.90
2022-11-01T04:37:24.791Z,27.08
2022-11-01T04:47:26.177Z,25.38
2022-11-01T04:57:27.569Z,24.83
2022-11-01T05:07:28.891Z,28.58
2022-11-01T05:17:30.283Z,25.13
2022-11-01T05:27:31.657Z,19.38
2022-11-01T05:37:33.175Z,21.08
2022-11-01T05:47:34.524Z,19.55
2022-11-01T05:57:35.892Z,14.88
2022-11-01T06:07:37.304Z,18.23
2022-11-01T06:17:38.620Z,9.25
2022-11-01T06:27:39.959Z,10.18
2022-11-01T06:37:41.516Z,11.55
2022-11-01T06:47:42.879Z,7.75
2022-11-01T06:57:44.189Z,10.50
2022-11-01T07:07:45.710Z,12.82
2022-11-01T07:17:48.147Z,9.18
2022-11-01T07:27:49.533Z,7.95
2022-11-01T07:37:50.919Z,6.75
2022-11-01T07:47:52.461Z,9.20
2022-11-01T07:57:53.810Z,8.27
2022-11-01T08:07:55.112Z,7.70
2022-11-01T08:17:57.059Z,8.98
2022-11-01T08:27:58.310Z,7.78
2022-11-01T08:37:59.826Z,7.28
2022-11-01T08:48:01.341Z,4.88
2022-11-01T08:58:02.892Z,7.43
2022-11-01T09:08:04.779Z,5.75
2022-11-01T09:18:06.461Z,5.57
2022-11-01T09:28:07.766Z,6.30
2022-11-01T09:38:09.114Z,7.85
2022-11-01T09:48:10.495Z,6.60
2022-11-01T09:58:11.826Z,8.00
2022-11-01T10:08:13.163Z,11.05
2022-11-01T10:18:14.482Z,9.13
2022-11-01T10:28:16.119Z,8.48
2022-11-01T10:38:30.186Z,7.35
2022-11-01T10:48:38.923Z,6.20
2022-11-01T10:58:40.322Z,5.82
2022-11-01T11:08:41.700Z,8.55
2022-11-01T11:18:44.078Z,6.68
2022-11-01T11:28:46.193Z,6.07
2022-11-01T11:38:47.883Z,7.13
2022-11-01T11:48:49.305Z,8.07
2022-11-01T11:58:52.252Z,10.15
2022-11-01T12:08:53.697Z,6.95
2022-11-01T12:18:55.021Z,9.38
2022-11-01T12:28:56.343Z,9.15
2022-11-01T12:38:57.947Z,3.80
2022-11-01T12:48:59.240Z,10.15
2022-11-01T12:59:01.052Z,7.93
2022-11-01T13:09:02.311Z,5.95
2022-11-01T13:19:03.648Z,5.78
2022-11-01T13:29:05.030Z,5.80
2022-11-01T13:39:06.498Z,6.88
2022-11-01T13:49:07.876Z,8.85
2022-11-01T13:59:09.185Z,8.43
2022-11-01T14:09:10.426Z,10.50
2022-11-01T14:19:20.236Z,10.32
2022-11-01T14:29:22.414Z,6.18
2022-11-01T14:39:24.040Z,9.60
2022-11-01T14:49:25.279Z,7.63
2022-11-01T14:59:26.690Z,7.38
2022-11-01T15:09:28.263Z,10.02
2022-11-01T15:19:29.842Z,7.38
2022-11-01T15:29:31.894Z,5.65
2022-11-01T15:39:33.340Z,8.30
2022-11-01T15:49:34.650Z,7.38
2022-11-01T15:59:36.032Z,8.35
2022-11-01T16:09:37.590Z,7.55
2022-11-01T16:19:38.902Z,9.68
2022-11-01T16:29:40.189Z,7.07
2022-11-01T16:39:42.221Z,7.03
2022-11-01T16:49:43.486Z,9.10
2022-11-01T16:59:44.784Z,8.50
2022-11-01T17:09:46.053Z,11.05
2022-11-01T17:19:47.603Z,13.00
2022-11-01T17:29:48.857Z,9.82
2022-11-01T17:39:50.178Z,13.45
2022-11-01T17:49:51.549Z,13.90
2022-11-01T17:59:52.840Z,16.33
2022-11-01T18:09:54.161Z,15.45
2022-11-01T18:19:55.528Z,11.88
2022-11-01T18:29:57.018Z,13.25
2022-11-01T18:39:59.179Z,15.70
2022-11-01T18:50:01.369Z,11.23
2022-11-01T19:00:04.028Z,12.85
2022-11-01T19:10:06.566Z,29.17
2022-11-01T19:20:07.929Z,11.25
2022-11-01T19:30:09.284Z,11.80
2022-11-01T19:40:10.723Z,13.60
2022-11-01T19:50:12.091Z,17.50
2022-11-01T20:00:13.623Z,14.32
2022-11-01T20:10:15.173Z,10.45
2022-11-01T20:20:16.567Z,12.93
2022-11-01T20:30:17.865Z,13.07
2022-11-01T20:40:19.171Z,12.80
2022-11-01T20:50:23.534Z,9.65
2022-11-01T21:00:24.913Z,12.13
2022-11-01T21:10:26.156Z,11.25
2022-11-01T21:20:27.447Z,11.80
2022-11-01T21:30:28.765Z,8.52
2022-11-01T21:40:30.120Z,7.22
2022-11-01T21:50:31.405Z,7.40
2022-11-01T22:00:32.774Z,8.60
2022-11-01T22:10:34.182Z,13.18
2022-11-01T22:20:35.521Z,11.30
2022-11-01T22:30:37.034Z,13.32
2022-11-01T22:40:38.425Z,8.18
2022-11-01T22:50:39.718Z,13.50
2022-11-01T23:00:41.149Z,8.88
2022-11-01T23:10:42.532Z,11.90
2022-11-01T23:20:43.862Z,10.57
2022-11-01T23:30:45.322Z,11.13
2022-11-01T23:40:46.798Z,14.77
2022-11-01T23:50:48.186Z,12.25
